Country
Station

 

Weather  for  Winchester Regional  -  United States    United States

  
6 °C (43 °F)
    
 
 

Current METAR for Winchester Regional is :

KOKV 192115Z AUTO 30019G25KT 10SM BKN043 OVC050 06/M02 A3007 RMK AO2

 

This is a report for Winchester Regional - United States.
 
The report was made 14 minutes ago, at 21:15 UTC .
The wind was blowing at a speed of 9.8 meters per second (21.9 miles per hour) with gusts up to 12.9 meters per second (28.8 miles per hour) from west/northwest (300°).
 
The temperature was 6 °C (43 °F), with a dew-point at -2 °C (28 °F).
The atmospheric pressure was 1018 hPa (30.07 inHg).
The relative humidity was 56.4%.
 
There were broken clouds at a height of 1311 meters (4300 feet). The sky was overcast from a height of 1524 meter (5000 feet)
 
The overall visibility was 16.1 kilometers (10.0 miles).
 

 
 
 
 

Country :   A   B   C   D   E   F   G   H   I   J   K   L   M   N   O   P   Q   R   S   T   U   V   W   Y   Z

 

Site Info  |  Disclaimer  |  Credits  |  Privacy
Contact us  |  Add to favorites
© 2013-2018 METARs - All rights reserved